Time;durP1;ratioP1;P1;durP2;ratioP2;P2;SDS_P1;SDS_P2;PMS_P1;PMS_P2;Temp;Humidity;BMP_temperature;BMP_pressure;BME280_temperature;BME280_humidity;BME280_pressure;Samples;Min_cycle;Max_cycle;Signal;HPM_P1;HPM_P2
2021/06/14 00:01:34;;;;;;;0.80;0.60;;;17.00;99.90;;;;;;5054471;28;20173;-73
2021/06/14 00:03:59;;;;;;;8.73;1.07;;;16.90;99.90;;;;;;5054465;28;20166;-72
2021/06/14 00:06:25;;;;;;;0.93;0.73;;;16.80;99.90;;;;;;5052962;28;20797;-72
2021/06/14 00:08:51;;;;;;;0.80;0.60;;;16.80;99.90;;;;;;5054500;28;20218;-72
2021/06/14 00:11:16;;;;;;;3.30;0.83;;;16.80;99.90;;;;;;5053146;28;20186;-72
2021/06/14 00:13:42;;;;;;;1.07;0.97;;;16.70;99.90;;;;;;5051652;28;20199;-72
2021/06/14 00:16:09;;;;;;;1.93;0.73;;;16.60;99.90;;;;;;5052546;28;20185;-72
2021/06/14 00:18:35;;;;;;;0.80;0.60;;;16.60;99.90;;;;;;5052889;28;20659;-72
2021/06/14 00:21:06;;;;;;;1.23;1.13;;;16.50;99.90;;;;;;5052896;28;20414;-73
2021/06/14 00:23:32;;;;;;;0.80;0.60;;;16.50;99.90;;;;;;5086146;28;20413;-72
2021/06/14 00:26:00;;;;;;;0.97;0.63;;;16.50;99.90;;;;;;5053758;28;20444;-72
2021/06/14 00:28:26;;;;;;;1.20;0.80;;;16.40;99.90;;;;;;5053383;28;20528;-72
2021/06/14 00:30:52;;;;;;;1.30;1.03;;;16.40;99.90;;;;;;5052865;28;20397;-72
2021/06/14 00:33:18;;;;;;;1.30;1.20;;;16.40;99.90;;;;;;5054177;28;20612;-72
2021/06/14 00:35:45;;;;;;;1.33;1.23;;;16.30;99.90;;;;;;5053729;28;20181;-72
2021/06/14 00:38:12;;;;;;;1.23;1.03;;;16.30;99.90;;;;;;5052392;28;20928;-72
2021/06/14 00:40:38;;;;;;;0.90;0.70;;;16.20;99.90;;;;;;5052483;28;20488;-72
2021/06/14 00:43:05;;;;;;;0.90;0.70;;;16.20;99.90;;;;;;5052691;28;20436;-71
2021/06/14 00:45:32;;;;;;;0.83;0.70;;;16.10;99.90;;;;;;5051898;28;20424;-72
2021/06/14 00:48:00;;;;;;;0.90;0.73;;;16.10;99.90;;;;;;5052284;28;20493;-71
2021/06/14 00:50:39;;;;;;;3.90;1.60;;;16.10;99.90;;;;;;5052231;28;20494;-71
2021/06/14 00:53:08;;;;;;;1.20;1.10;;;16.10;99.90;;;;;;5052267;28;20940;-71
2021/06/14 00:55:34;;;;;;;1.53;1.00;;;16.10;99.90;;;;;;5051896;28;20455;-72
2021/06/14 00:58:00;;;;;;;0.90;0.73;;;16.00;99.90;;;;;;5052206;28;20409;-71
2021/06/14 01:00:25;;;;;;;0.80;0.60;;;16.00;99.90;;;;;;5050981;28;20412;-71
2021/06/14 01:02:51;;;;;;;1.37;1.27;;;16.00;99.90;;;;;;5052781;28;20179;-71
2021/06/14 01:05:17;;;;;;;0.80;0.60;;;16.00;99.90;;;;;;5053196;28;20163;-71
2021/06/14 01:07:43;;;;;;;0.87;0.63;;;16.00;99.90;;;;;;5053267;28;20191;-71
2021/06/14 01:10:10;;;;;;;1.53;1.00;;;15.90;99.90;;;;;;5051908;28;20412;-71
2021/06/14 01:12:42;;;;;;;1.47;1.20;;;15.90;99.90;;;;;;5053256;28;20397;-71
2021/06/14 01:15:11;;;;;;;0.90;0.90;;;15.90;99.90;;;;;;5052586;28;20398;-71
2021/06/14 01:17:45;;;;;;;0.80;0.60;;;15.90;99.90;;;;;;5052976;28;20937;-71
2021/06/14 01:20:22;;;;;;;3.03;0.70;;;15.80;99.90;;;;;;5052077;28;20496;-71
2021/06/14 01:23:29;;;;;;;6.27;1.03;;;15.80;99.90;;;;;;5053287;28;20397;-71
2021/06/14 01:25:59;;;;;;;2.17;0.90;;;15.80;99.90;;;;;;4991351;28;20859;-71
2021/06/14 01:28:27;;;;;;;0.80;0.60;;;15.70;99.90;;;;;;4990958;28;20736;-71
2021/06/14 01:30:54;;;;;;;0.90;0.60;;;15.70;99.90;;;;;;5022995;28;20405;-71
2021/06/14 01:33:23;;;;;;;0.80;0.60;;;15.70;99.90;;;;;;5051834;28;20401;-71
2021/06/14 01:35:53;;;;;;;1.10;0.70;;;15.80;99.90;;;;;;5051953;28;20417;-71
2021/06/14 01:38:21;;;;;;;1.43;1.13;;;15.80;99.90;;;;;;5051858;28;20910;-71
2021/06/14 01:40:49;;;;;;;0.80;0.50;;;15.80;99.90;;;;;;5051757;28;20902;-71
2021/06/14 01:43:17;;;;;;;1.97;1.00;;;15.80;99.90;;;;;;5051748;28;20401;-71
2021/06/14 01:45:49;;;;;;;1.00;0.90;;;15.70;99.90;;;;;;5049928;28;20508;-71
2021/06/14 01:48:16;;;;;;;4.93;2.03;;;15.70;99.90;;;;;;5052449;28;20517;-71
2021/06/14 01:50:42;;;;;;;1.20;1.07;;;15.70;99.90;;;;;;5055764;28;20940;-71
2021/06/14 01:53:07;;;;;;;0.80;0.60;;;15.60;99.90;;;;;;5055503;28;20408;-71
2021/06/14 01:55:35;;;;;;;0.80;0.60;;;15.60;99.90;;;;;;5054811;28;21041;-71
2021/06/14 01:58:01;;;;;;;1.10;0.70;;;15.60;99.90;;;;;;5053731;28;20439;-71
2021/06/14 02:00:27;;;;;;;0.80;0.70;;;15.50;99.90;;;;;;5054144;28;20433;-71
2021/06/14 02:02:53;;;;;;;1.17;1.07;;;15.50;99.90;;;;;;5053497;28;20429;-71
2021/06/14 02:05:24;;;;;;;0.90;0.60;;;15.50;99.90;;;;;;5055494;28;20405;-71
2021/06/14 02:07:51;;;;;;;1.13;1.00;;;15.50;99.90;;;;;;5055307;28;20448;-71
2021/06/14 02:10:19;;;;;;;1.23;0.97;;;15.50;99.90;;;;;;5052887;28;20460;-71
2021/06/14 02:12:46;;;;;;;0.80;0.60;;;15.40;99.90;;;;;;5053656;28;20464;-71
2021/06/14 02:15:14;;;;;;;1.03;0.90;;;15.30;99.90;;;;;;5055021;28;20818;-71
2021/06/14 02:17:42;;;;;;;2.93;1.47;;;15.30;99.90;;;;;;5055042;28;20506;-71
2021/06/14 02:20:09;;;;;;;1.50;1.10;;;15.30;99.90;;;;;;5042194;28;20528;-71
2021/06/14 02:22:36;;;;;;;1.60;1.50;;;15.30;99.90;;;;;;5046574;28;20516;-71
2021/06/14 02:25:05;;;;;;;1.20;1.10;;;15.30;99.90;;;;;;5049739;28;20421;-71
2021/06/14 02:27:30;;;;;;;1.00;0.70;;;15.30;99.90;;;;;;5053953;28;20453;-71
2021/06/14 02:29:56;;;;;;;0.80;0.60;;;15.20;99.90;;;;;;5055910;28;20833;-72
2021/06/14 02:32:22;;;;;;;0.80;0.60;;;15.20;99.90;;;;;;5054951;28;20186;-71
2021/06/14 02:34:48;;;;;;;1.23;0.90;;;15.20;99.90;;;;;;5055180;28;20167;-71
2021/06/14 02:37:16;;;;;;;0.80;0.60;;;15.20;99.90;;;;;;5055371;28;20842;-72
2021/06/14 02:39:45;;;;;;;1.63;0.90;;;15.20;99.90;;;;;;5055307;28;20440;-71
2021/06/14 02:42:12;;;;;;;0.80;0.50;;;15.10;99.90;;;;;;5053927;28;20438;-71
2021/06/14 02:44:38;;;;;;;1.13;1.03;;;15.00;99.90;;;;;;5053760;28;20433;-72
2021/06/14 02:47:12;;;;;;;1.00;0.93;;;15.00;99.90;;;;;;5054268;28;20437;-71
2021/06/14 02:49:39;;;;;;;0.80;0.70;;;14.90;99.90;;;;;;5085746;28;20460;-72
2021/06/14 02:52:08;;;;;;;1.00;0.90;;;14.90;99.90;;;;;;5052812;28;20527;-71
2021/06/14 02:54:41;;;;;;;0.90;0.70;;;15.00;99.90;;;;;;5049911;28;20769;-71
2021/06/14 02:57:11;;;;;;;1.13;0.83;;;15.00;99.90;;;;;;5053563;28;20457;-71
2021/06/14 02:59:39;;;;;;;1.03;0.60;;;15.00;99.90;;;;;;5052648;28;20460;-71
2021/06/14 03:02:05;;;;;;;1.20;1.03;;;15.00;99.90;;;;;;5052453;28;20445;-71
2021/06/14 03:04:32;;;;;;;1.57;1.10;;;14.90;99.90;;;;;;5054331;28;20409;-72
2021/06/14 03:06:58;;;;;;;1.20;0.90;;;14.90;99.90;;;;;;5054661;28;20426;-71
2021/06/14 03:09:25;;;;;;;1.17;1.07;;;14.90;99.90;;;;;;5054034;28;20486;-71
2021/06/14 03:11:51;;;;;;;1.73;0.80;;;15.00;99.90;;;;;;5053181;28;20189;-72
2021/06/14 03:14:21;;;;;;;2.10;1.23;;;15.00;99.90;;;;;;5053549;28;20433;-72
2021/06/14 03:16:47;;;;;;;0.80;0.70;;;15.00;99.90;;;;;;5033925;28;20474;-72
2021/06/14 03:19:14;;;;;;;1.10;0.73;;;15.00;99.90;;;;;;5040638;28;20972;-71
2021/06/14 03:21:41;;;;;;;1.20;0.90;;;15.00;99.90;;;;;;5053906;28;20914;-71
2021/06/14 03:24:08;;;;;;;0.80;0.60;;;15.00;99.90;;;;;;5053999;28;20455;-71
2021/06/14 03:26:42;;;;;;;4.87;1.57;;;14.90;99.90;;;;;;5053549;28;20803;-71
2021/06/14 03:29:09;;;;;;;1.33;1.23;;;14.90;99.90;;;;;;5051954;28;20453;-72
2021/06/14 03:31:36;;;;;;;1.17;0.67;;;15.00;99.90;;;;;;5053367;28;20424;-72
2021/06/14 03:34:03;;;;;;;1.93;1.10;;;15.00;99.90;;;;;;5053788;28;20397;-72
2021/06/14 03:36:30;;;;;;;3.00;0.90;;;15.00;99.90;;;;;;5053314;28;20421;-72
2021/06/14 03:38:57;;;;;;;1.47;1.17;;;15.00;99.90;;;;;;5052936;28;20473;-71
2021/06/14 03:41:22;;;;;;;1.00;0.87;;;14.90;99.90;;;;;;5053618;28;20910;-71
2021/06/14 03:43:49;;;;;;;1.00;0.83;;;15.00;99.90;;;;;;5052269;28;20501;-71
2021/06/14 03:46:14;;;;;;;4.53;1.67;;;15.00;99.90;;;;;;5053216;28;20222;-71
2021/06/14 03:48:40;;;;;;;1.33;1.00;;;14.90;99.90;;;;;;5052825;28;20565;-71
2021/06/14 03:51:06;;;;;;;0.90;0.70;;;14.90;99.90;;;;;;5053427;28;20178;-71
2021/06/14 03:53:33;;;;;;;1.57;1.47;;;14.90;99.90;;;;;;5052215;28;20179;-72
2021/06/14 03:56:04;;;;;;;2.30;1.73;;;15.00;99.90;;;;;;5039738;28;20690;-72
2021/06/14 03:58:30;;;;;;;1.10;0.83;;;14.90;99.90;;;;;;5052011;28;20433;-72
2021/06/14 04:00:55;;;;;;;16.27;1.17;;;14.90;99.90;;;;;;5049247;28;20792;-72
2021/06/14 04:03:24;;;;;;;1.57;1.20;;;14.90;99.90;;;;;;5051900;28;20417;-72
2021/06/14 04:05:49;;;;;;;1.47;1.23;;;14.90;99.90;;;;;;5084997;28;20229;-72
2021/06/14 04:08:15;;;;;;;0.80;0.80;;;14.90;99.90;;;;;;5053005;28;20969;-71
2021/06/14 04:10:41;;;;;;;0.80;0.60;;;14.90;99.90;;;;;;5051913;28;20232;-71
2021/06/14 04:13:08;;;;;;;0.73;0.53;;;14.80;99.90;;;;;;5051367;28;20174;-72
2021/06/14 04:15:34;;;;;;;0.87;0.70;;;14.70;99.90;;;;;;5051651;28;20174;-72
2021/06/14 04:17:59;;;;;;;1.77;1.47;;;14.70;99.90;;;;;;5052879;28;20397;-72
2021/06/14 04:20:25;;;;;;;1.83;0.80;;;14.60;99.90;;;;;;5052302;28;20452;-72
2021/06/14 04:22:52;;;;;;;1.03;0.93;;;14.60;99.90;;;;;;5051275;28;20182;-72
2021/06/14 04:25:18;;;;;;;4.20;3.30;;;14.60;99.90;;;;;;5049652;28;20520;-72
2021/06/14 04:27:44;;;;;;;0.80;0.60;;;14.50;99.90;;;;;;5041600;28;21012;-71
2021/06/14 04:30:11;;;;;;;0.80;0.80;;;14.40;99.90;;;;;;5034547;28;20442;-71
2021/06/14 04:32:37;;;;;;;2.33;1.17;;;14.40;99.90;;;;;;5032712;28;20425;-71
2021/06/14 04:35:04;;;;;;;1.60;0.87;;;14.60;99.90;;;;;;5045831;28;20429;-71
2021/06/14 04:37:30;;;;;;;0.80;0.80;;;14.70;99.90;;;;;;5052491;28;20183;-71
2021/06/14 04:39:55;;;;;;;0.90;0.80;;;14.70;99.90;;;;;;5050614;28;20503;-71
2021/06/14 04:42:21;;;;;;;1.00;0.73;;;14.70;99.90;;;;;;5050512;28;20534;-71
2021/06/14 04:44:46;;;;;;;0.80;0.60;;;14.80;99.90;;;;;;5052325;28;20256;-71
2021/06/14 04:47:12;;;;;;;1.87;1.77;;;14.70;99.90;;;;;;5051854;28;20187;-71
2021/06/14 04:49:38;;;;;;;1.43;1.33;;;14.80;99.90;;;;;;5049875;28;20656;-71
2021/06/14 04:52:04;;;;;;;1.00;0.87;;;14.80;99.90;;;;;;5032783;28;20226;-71
2021/06/14 04:54:29;;;;;;;4.63;1.67;;;14.80;99.90;;;;;;5050201;28;20651;-72
2021/06/14 04:56:55;;;;;;;1.30;0.70;;;14.80;99.90;;;;;;5050584;28;20518;-71
2021/06/14 04:59:20;;;;;;;0.70;0.50;;;14.90;99.90;;;;;;5052253;28;20167;-71
2021/06/14 05:01:46;;;;;;;0.80;0.50;;;15.00;99.90;;;;;;5051100;28;20185;-71
2021/06/14 05:04:11;;;;;;;1.10;0.80;;;15.10;99.90;;;;;;5052114;28;20181;-71
2021/06/14 05:06:37;;;;;;;0.97;0.80;;;15.20;99.90;;;;;;5050662;28;20564;-71
2021/06/14 05:09:03;;;;;;;1.00;0.90;;;15.30;99.90;;;;;;5050277;28;20671;-71
2021/06/14 05:11:28;;;;;;;0.90;0.77;;;15.30;99.90;;;;;;5049613;28;20181;-71
2021/06/14 05:13:54;;;;;;;1.20;1.03;;;15.50;99.90;;;;;;5051979;28;20726;-71
2021/06/14 05:16:19;;;;;;;1.03;0.93;;;15.60;99.90;;;;;;5051438;28;20713;-72
2021/06/14 05:18:45;;;;;;;0.80;0.60;;;15.60;99.90;;;;;;5050699;28;20215;-71
2021/06/14 05:21:10;;;;;;;0.80;0.67;;;15.60;99.90;;;;;;5051937;28;20175;-71
2021/06/14 05:23:36;;;;;;;1.80;1.00;;;15.70;99.90;;;;;;5051128;28;20178;-71
2021/06/14 05:26:02;;;;;;;1.63;1.20;;;15.80;99.90;;;;;;5048396;28;20236;-72
2021/06/14 05:28:27;;;;;;;2.97;1.67;;;16.00;99.90;;;;;;5040347;28;20682;-71
2021/06/14 05:30:53;;;;;;;1.20;1.10;;;16.10;99.90;;;;;;5051911;28;20174;-71
2021/06/14 05:33:18;;;;;;;1.50;1.03;;;16.30;99.90;;;;;;5051571;28;20182;-71
2021/06/14 05:35:44;;;;;;;0.90;0.80;;;16.40;99.90;;;;;;5051557;28;20175;-71
2021/06/14 05:38:09;;;;;;;1.50;1.10;;;16.40;99.90;;;;;;5051833;28;20171;-71
2021/06/14 05:40:35;;;;;;;1.20;1.10;;;16.50;99.90;;;;;;5050593;28;20258;-71
2021/06/14 05:43:00;;;;;;;3.10;1.47;;;16.60;99.90;;;;;;5051270;28;20203;-71
2021/06/14 05:45:26;;;;;;;1.00;0.90;;;16.80;99.90;;;;;;5051545;28;20170;-71
2021/06/14 05:47:52;;;;;;;0.90;0.70;;;16.80;99.90;;;;;;5051473;28;20226;-71
2021/06/14 05:50:17;;;;;;;0.90;0.80;;;16.80;99.90;;;;;;5050875;28;20187;-72
2021/06/14 05:52:43;;;;;;;1.10;0.80;;;17.10;99.90;;;;;;5048897;28;20178;-71
2021/06/14 05:55:09;;;;;;;1.10;0.93;;;17.20;99.90;;;;;;5050430;28;20181;-71
2021/06/14 05:57:35;;;;;;;2.83;1.50;;;17.30;99.90;;;;;;5051045;28;20289;-72
2021/06/14 06:00:00;;;;;;;1.30;0.80;;;17.50;99.90;;;;;;5050590;28;20509;-72
2021/06/14 06:02:26;;;;;;;1.50;0.83;;;17.70;99.90;;;;;;5051017;28;20656;-72
2021/06/14 06:04:51;;;;;;;0.90;0.60;;;17.80;99.90;;;;;;5051331;28;20536;-72
2021/06/14 06:07:17;;;;;;;1.20;0.73;;;18.00;99.90;;;;;;5050485;28;20191;-72
2021/06/14 06:09:43;;;;;;;1.50;0.90;;;18.30;99.90;;;;;;5050763;28;20560;-72
2021/06/14 06:12:09;;;;;;;2.70;1.17;;;18.40;99.90;;;;;;5051469;28;20170;-72
2021/06/14 06:14:35;;;;;;;1.20;1.00;;;18.60;99.90;;;;;;5049578;28;20182;-72
2021/06/14 06:17:00;;;;;;;1.10;0.97;;;18.80;99.90;;;;;;5051043;28;20422;-72
2021/06/14 06:19:26;;;;;;;3.43;1.40;;;18.90;99.90;;;;;;5050991;28;20261;-72
2021/06/14 06:21:51;;;;;;;1.53;1.20;;;19.10;99.90;;;;;;5050513;28;20703;-72
2021/06/14 06:24:17;;;;;;;0.90;0.80;;;19.30;99.90;;;;;;5049174;28;20189;-72
2021/06/14 06:26:42;;;;;;;0.80;0.60;;;19.50;99.90;;;;;;5049860;28;20197;-72
2021/06/14 06:29:08;;;;;;;1.20;0.70;;;19.60;99.90;;;;;;5050512;28;20256;-72
2021/06/14 06:31:34;;;;;;;1.13;0.90;;;19.70;99.90;;;;;;5049297;28;21208;-72
2021/06/14 06:33:59;;;;;;;1.53;1.20;;;19.90;99.90;;;;;;5050496;28;20250;-72
2021/06/14 06:36:25;;;;;;;1.13;0.80;;;20.20;99.90;;;;;;5053220;28;20604;-72
2021/06/14 06:38:50;;;;;;;0.87;0.60;;;20.40;99.90;;;;;;5052338;28;20275;-72
2021/06/14 06:41:16;;;;;;;1.33;0.80;;;20.60;99.90;;;;;;5054846;28;20194;-72
2021/06/14 06:43:42;;;;;;;3.43;1.30;;;20.60;99.90;;;;;;5054088;28;20183;-72
2021/06/14 06:46:09;;;;;;;2.10;1.20;;;20.70;99.90;;;;;;5054309;28;20252;-72
2021/06/14 06:48:35;;;;;;;2.30;1.37;;;21.00;99.90;;;;;;5053607;28;20195;-72
2021/06/14 06:51:00;;;;;;;1.00;0.90;;;21.10;99.90;;;;;;5054461;28;20483;-72
2021/06/14 06:53:27;;;;;;;1.40;1.10;;;21.20;99.90;;;;;;5052246;28;20182;-72
2021/06/14 06:55:53;;;;;;;4.40;1.10;;;21.30;99.90;;;;;;5053115;28;20171;-72
2021/06/14 06:58:18;;;;;;;0.87;0.73;;;21.40;99.90;;;;;;5054389;28;20433;-72
2021/06/14 07:00:47;;;;;;;0.90;0.73;;;21.70;99.90;;;;;;5053604;28;20476;-73
2021/06/14 07:03:13;;;;;;;6.83;1.23;;;21.90;99.90;;;;;;5053334;28;20308;-72
2021/06/14 07:05:40;;;;;;;1.07;0.97;;;21.90;99.90;;;;;;5051915;28;20524;-73
2021/06/14 07:08:06;;;;;;;0.90;0.77;;;22.10;99.90;;;;;;5054237;28;20441;-72
2021/06/14 07:10:32;;;;;;;0.90;0.70;;;22.40;99.90;;;;;;5051249;28;20428;-72
2021/06/14 07:12:59;;;;;;;1.20;1.10;;;22.60;99.90;;;;;;5052796;28;20430;-72
2021/06/14 07:15:25;;;;;;;6.30;1.27;;;22.70;99.90;;;;;;5050393;28;20486;-72
2021/06/14 07:17:51;;;;;;;1.33;0.73;;;22.90;99.90;;;;;;5051908;28;20449;-73
2021/06/14 07:20:17;;;;;;;0.90;0.67;;;23.10;99.90;;;;;;5052784;28;20426;-72
2021/06/14 07:22:43;;;;;;;1.30;1.20;;;23.40;99.90;;;;;;5037320;28;20169;-72
2021/06/14 07:25:09;;;;;;;1.67;1.07;;;23.80;99.90;;;;;;5051729;28;21024;-73
2021/06/14 07:27:35;;;;;;;2.80;2.20;;;24.10;99.90;;;;;;5053133;28;20213;-72
2021/06/14 07:30:05;;;;;;;1.20;1.07;;;24.30;99.90;;;;;;5050907;28;20425;-73
2021/06/14 07:32:30;;;;;;;1.20;1.10;;;24.50;99.90;;;;;;5052556;28;20179;-73
2021/06/14 07:34:56;;;;;;;1.57;1.27;;;24.80;99.90;;;;;;5052627;28;20483;-73
2021/06/14 07:37:21;;;;;;;1.07;0.97;;;25.20;99.90;;;;;;5052625;28;20195;-73
2021/06/14 07:39:47;;;;;;;1.43;1.23;;;25.60;99.90;;;;;;5053673;28;20167;-72
2021/06/14 07:42:13;;;;;;;1.10;0.87;;;26.00;99.90;;;;;;5053675;28;20177;-73
2021/06/14 07:44:39;;;;;;;1.17;0.93;;;26.20;99.90;;;;;;5051040;28;20199;-73
2021/06/14 07:47:05;;;;;;;2.13;1.17;;;26.50;99.90;;;;;;5050493;28;20488;-73
2021/06/14 07:49:30;;;;;;;1.10;0.90;;;26.60;99.50;;;;;;5052553;28;20504;-73
2021/06/14 07:51:56;;;;;;;0.90;0.80;;;26.50;98.30;;;;;;5053412;28;20166;-72
2021/06/14 07:54:22;;;;;;;1.00;0.80;;;26.70;98.00;;;;;;5049759;28;20175;-73
2021/06/14 07:56:49;;;;;;;2.90;1.20;;;27.00;99.90;;;;;;5050699;28;20449;-73
2021/06/14 07:59:15;;;;;;;1.20;1.03;;;27.40;99.80;;;;;;5053304;28;20175;-73
2021/06/14 08:01:40;;;;;;;1.13;1.03;;;27.70;97.80;;;;;;5048850;28;20557;-73
2021/06/14 08:04:07;;;;;;;1.80;1.60;;;28.20;97.90;;;;;;5051916;28;20572;-74
2021/06/14 08:06:32;;;;;;;1.30;1.10;;;28.30;91.70;;;;;;5052663;28;20437;-73
2021/06/14 08:08:59;;;;;;;1.50;1.40;;;28.10;90.80;;;;;;5052902;28;20445;-73
2021/06/14 08:11:26;;;;;;;1.00;0.90;;;28.40;91.70;;;;;;5052755;28;20743;-73
2021/06/14 08:13:52;;;;;;;1.73;1.00;;;28.90;90.30;;;;;;5051762;28;20420;-74
2021/06/14 08:16:18;;;;;;;1.20;0.90;;;29.10;89.70;;;;;;5052364;28;20429;-73
2021/06/14 08:18:46;;;;;;;0.90;0.80;;;29.00;81.10;;;;;;5041515;28;20172;-74
2021/06/14 08:26:30;;;;;;;1.40;0.80;;;29.80;84.30;;;;;;5034849;28;20783;-73
2021/06/14 08:28:58;;;;;;;0.90;0.77;;;29.90;81.10;;;;;;5046893;28;20473;-73
2021/06/14 08:31:25;;;;;;;1.40;1.20;;;29.80;73.10;;;;;;5052714;28;20401;-73
2021/06/14 08:33:51;;;;;;;1.67;1.13;;;30.10;77.40;;;;;;5051540;28;20823;-73
2021/06/14 08:36:16;;;;;;;0.97;0.87;;;30.20;75.20;;;;;;5052246;28;20421;-73
2021/06/14 08:38:42;;;;;;;1.60;1.03;;;30.40;73.30;;;;;;5052561;28;20627;-73
2021/06/14 08:41:08;;;;;;;1.10;1.00;;;30.70;66.60;;;;;;5052381;28;20252;-73
2021/06/14 08:43:34;;;;;;;1.30;0.80;;;30.80;66.60;;;;;;5052385;28;20678;-74
2021/06/14 08:45:59;;;;;;;1.07;0.83;;;31.00;62.90;;;;;;5084335;28;20198;-73
2021/06/14 08:48:25;;;;;;;1.00;0.90;;;31.20;67.20;;;;;;5052316;28;20452;-73
2021/06/14 08:50:51;;;;;;;0.90;0.70;;;31.20;63.60;;;;;;5054050;28;20186;-73
2021/06/14 08:53:17;;;;;;;1.07;0.97;;;31.60;64.70;;;;;;5059343;28;20552;-73
2021/06/14 08:55:43;;;;;;;2.43;1.13;;;31.50;59.20;;;;;;5051743;28;20174;-74
2021/06/14 08:58:09;;;;;;;1.73;0.97;;;31.70;62.60;;;;;;5084610;28;20175;-74
2021/06/14 09:00:35;;;;;;;1.90;1.13;;;31.80;59.30;;;;;;5050652;28;21040;-74
2021/06/14 09:03:02;;;;;;;1.97;1.37;;;31.90;56.00;;;;;;5050072;28;20238;-74
2021/06/14 09:05:27;;;;;;;1.53;1.10;;;31.90;59.20;;;;;;5046834;28;20413;-74
2021/06/14 09:08:00;;;;;;;1.83;1.00;;;32.30;56.70;;;;;;5050267;28;20445;-75
2021/06/14 09:10:33;;;;;;;2.23;1.03;;;32.30;56.20;;;;;;5051224;28;20193;-74
2021/06/14 09:13:14;;;;;;;1.53;0.90;;;32.30;57.50;;;;;;5052011;28;20782;-75
2021/06/14 09:15:41;;;;;;;1.20;1.03;;;32.90;58.90;;;;;;5049220;28;20429;-74
2021/06/14 09:18:15;;;;;;;2.27;0.90;;;33.20;57.70;;;;;;5049066;28;20812;-74
2021/06/14 09:21:12;;;;;;;2.10;1.20;;;33.00;54.20;;;;;;5050065;28;20417;-75
2021/06/14 09:23:55;;;;;;;1.20;1.00;;;33.20;55.40;;;;;;5051082;28;20473;-74
2021/06/14 09:26:39;;;;;;;3.20;1.77;;;33.70;55.50;;;;;;5051540;28;20508;-74
2021/06/14 09:29:08;;;;;;;1.40;1.30;;;33.90;55.70;;;;;;5051774;28;20441;-74
2021/06/14 09:31:43;;;;;;;1.20;1.00;;;33.80;51.30;;;;;;5051567;28;20421;-74
2021/06/14 09:34:10;;;;;;;1.00;0.90;;;33.90;51.80;;;;;;5051866;28;20769;-74
2021/06/14 09:36:36;;;;;;;1.60;1.50;;;34.30;54.70;;;;;;5083353;28;20437;-74
2021/06/14 09:39:12;;;;;;;1.13;1.03;;;34.40;51.60;;;;;;5051562;28;20449;-75
2021/06/14 09:41:40;;;;;;;1.77;1.67;;;34.80;49.50;;;;;;5051450;28;20540;-75
2021/06/14 09:44:06;;;;;;;1.23;1.10;;;35.10;49.90;;;;;;5050429;28;20508;-74
2021/06/14 09:46:33;;;;;;;1.27;1.10;;;35.10;50.70;;;;;;5051406;28;20961;-74
2021/06/14 09:49:01;;;;;;;1.70;1.10;;;35.30;48.50;;;;;;5051276;28;20675;-74
2021/06/14 09:51:28;;;;;;;1.27;1.17;;;35.20;50.10;;;;;;5083735;28;20422;-74
2021/06/14 09:53:55;;;;;;;1.50;1.27;;;35.40;48.70;;;;;;5047380;28;20937;-74
2021/06/14 09:56:36;;;;;;;1.20;0.90;;;35.30;44.40;;;;;;5051142;28;20790;-74
2021/06/14 09:59:04;;;;;;;1.20;1.10;;;35.30;43.70;;;;;;5051957;28;20527;-74
2021/06/14 10:01:33;;;;;;;1.57;0.93;;;35.00;45.00;;;;;;5052370;28;20408;-74
2021/06/14 10:04:04;;;;;;;1.00;0.90;;;34.80;45.70;;;;;;5050643;28;20414;-75
2021/06/14 10:06:37;;;;;;;1.43;1.23;;;34.90;45.90;;;;;;5050280;28;20429;-75
2021/06/14 10:09:14;;;;;;;0.90;0.80;;;34.90;45.70;;;;;;5055391;28;20477;-75
2021/06/14 10:11:45;;;;;;;1.20;0.90;;;34.40;43.30;;;;;;5053028;28;20458;-75
2021/06/14 10:14:13;;;;;;;1.60;1.23;;;34.80;44.70;;;;;;5054151;28;20778;-75
2021/06/14 10:16:43;;;;;;;1.20;0.80;;;35.20;44.10;;;;;;5056694;28;20488;-75
2021/06/14 10:19:12;;;;;;;1.97;1.50;;;35.20;42.90;;;;;;5058008;28;20425;-75
2021/06/14 10:21:56;;;;;;;1.57;1.47;;;34.90;44.40;;;;;;5059202;28;20501;-74
2021/06/14 10:24:22;;;;;;;1.50;1.30;;;35.40;44.40;;;;;;5039166;28;20410;-75
2021/06/14 10:26:53;;;;;;;6.70;1.17;;;35.50;43.00;;;;;;5040024;28;20453;-75
2021/06/14 10:29:20;;;;;;;1.73;1.30;;;35.30;40.80;;;;;;5058710;28;21014;-75
2021/06/14 10:31:48;;;;;;;1.13;1.03;;;35.20;39.90;;;;;;5057304;28;20409;-74
2021/06/14 10:34:16;;;;;;;1.10;1.00;;;35.40;40.80;;;;;;5054933;28;20736;-76
2021/06/14 10:36:52;;;;;;;1.30;1.10;;;35.60;41.30;;;;;;5054618;28;20429;-75
2021/06/14 10:39:23;;;;;;;2.17;1.40;;;36.20;41.00;;;;;;5058111;28;20424;-75
2021/06/14 10:41:49;;;;;;;1.10;1.00;;;36.30;41.60;;;;;;5057732;28;20423;-75
2021/06/14 10:44:15;;;;;;;1.00;0.90;;;36.40;40.90;;;;;;5056566;28;20463;-75
2021/06/14 10:46:45;;;;;;;1.10;0.90;;;35.80;41.50;;;;;;5056801;28;20429;-74
2021/06/14 10:49:12;;;;;;;1.30;1.17;;;36.00;41.40;;;;;;5057670;28;20237;-75
2021/06/14 10:51:40;;;;;;;2.03;1.00;;;36.20;42.10;;;;;;5055879;28;20398;-75
2021/06/14 10:54:08;;;;;;;1.40;1.00;;;36.20;39.70;;;;;;5054386;28;20412;-74
2021/06/14 10:56:36;;;;;;;1.03;0.93;;;36.70;40.90;;;;;;5053482;28;20439;-74
2021/06/14 10:59:04;;;;;;;1.13;1.03;;;36.80;39.70;;;;;;5054461;28;20409;-74
2021/06/14 11:01:33;;;;;;;1.07;0.97;;;37.00;41.70;;;;;;5055314;28;20416;-75
2021/06/14 11:04:00;;;;;;;1.13;1.03;;;37.10;42.40;;;;;;5058718;28;20776;-74
2021/06/14 11:06:31;;;;;;;1.20;1.10;;;37.30;40.60;;;;;;5092112;28;20444;-75
2021/06/14 11:09:12;;;;;;;1.40;1.20;;;37.30;38.90;;;;;;5059071;28;20445;-74
2021/06/14 11:11:53;;;;;;;1.27;1.07;;;37.30;37.30;;;;;;5054233;28;20393;-75
2021/06/14 11:14:28;;;;;;;1.47;0.93;;;36.70;36.00;;;;;;5054456;28;20920;-74
2021/06/14 11:16:53;;;;;;;1.00;0.90;;;36.40;36.20;;;;;;5054529;28;20412;-75
2021/06/14 11:19:19;;;;;;;1.20;0.93;;;36.40;36.10;;;;;;5054896;28;20394;-74
2021/06/14 11:21:52;;;;;;;1.00;0.90;;;36.40;35.50;;;;;;5053064;28;20201;-74
2021/06/14 11:24:19;;;;;;;1.00;0.83;;;36.40;36.40;;;;;;5053979;28;20163;-74
2021/06/14 11:26:55;;;;;;;1.23;1.13;;;36.60;36.50;;;;;;5052329;28;20457;-74
2021/06/14 11:29:21;;;;;;;1.13;0.93;;;36.90;37.90;;;;;;5053590;28;20854;-74
2021/06/14 11:32:02;;;;;;;1.03;0.93;;;36.80;37.60;;;;;;5056443;28;20455;-74
2021/06/14 11:34:41;;;;;;;1.17;1.00;;;37.00;37.20;;;;;;5052934;28;20171;-75
2021/06/14 11:37:07;;;;;;;1.00;0.90;;;37.30;38.80;;;;;;5058184;28;20424;-75
2021/06/14 11:39:33;;;;;;;1.40;1.30;;;37.10;37.80;;;;;;5054778;28;20768;-76
2021/06/14 11:42:14;;;;;;;0.90;0.80;;;37.00;37.40;;;;;;5053987;28;20163;-75
2021/06/14 11:44:51;;;;;;;1.07;0.97;;;37.10;35.70;;;;;;5055633;28;20425;-74
2021/06/14 11:47:19;;;;;;;1.50;1.30;;;37.60;38.30;;;;;;5054335;28;20474;-75
2021/06/14 11:49:47;;;;;;;1.00;0.90;;;37.80;37.80;;;;;;5053541;28;20461;-74
2021/06/14 11:52:36;;;;;;;0.93;0.83;;;37.90;37.30;;;;;;5054398;28;20418;-75
2021/06/14 11:55:11;;;;;;;1.20;0.90;;;37.30;35.80;;;;;;5055755;28;20823;-74
2021/06/14 11:57:39;;;;;;;1.87;1.23;;;37.40;35.60;;;;;;5055000;28;20741;-75
2021/06/14 12:00:11;;;;;;;1.10;0.90;;;37.10;34.40;;;;;;5058638;28;20416;-75
2021/06/14 12:02:37;;;;;;;0.93;0.80;;;37.40;34.90;;;;;;5058240;28;20409;-75
2021/06/14 12:05:06;;;;;;;1.00;0.90;;;37.50;35.70;;;;;;5057301;28;20444;-75
2021/06/14 12:07:34;;;;;;;1.70;1.60;;;37.70;37.80;;;;;;5058339;28;20210;-75
2021/06/14 12:10:08;;;;;;;1.27;1.07;;;37.90;36.60;;;;;;5058192;28;20445;-75
2021/06/14 12:12:34;;;;;;;1.10;0.93;;;38.20;37.00;;;;;;5054650;28;20808;-74
2021/06/14 12:15:00;;;;;;;1.30;1.20;;;38.40;34.40;;;;;;5054326;28;20902;-74
2021/06/14 12:17:49;;;;;;;1.37;1.10;;;38.40;35.50;;;;;;5053258;28;20483;-74
2021/06/14 12:20:21;;;;;;;1.00;0.90;;;38.50;37.70;;;;;;5052953;28;20221;-74
2021/06/14 12:22:46;;;;;;;1.67;1.00;;;38.00;34.80;;;;;;5052670;28;20836;-75
2021/06/14 12:25:13;;;;;;;1.07;0.90;;;38.40;36.50;;;;;;5052611;28;20466;-75
2021/06/14 12:27:40;;;;;;;1.13;1.03;;;38.20;36.00;;;;;;5053692;28;20187;-74
2021/06/14 12:30:11;;;;;;;1.20;1.10;;;38.20;34.50;;;;;;5053326;28;20460;-74
2021/06/14 12:32:38;;;;;;;1.10;1.00;;;38.50;34.70;;;;;;5055272;28;20405;-75
2021/06/14 12:35:07;;;;;;;1.07;0.97;;;38.60;34.70;;;;;;5086132;28;20555;-74
2021/06/14 12:37:33;;;;;;;1.30;1.00;;;38.70;35.10;;;;;;5055999;28;20473;-74
2021/06/14 12:40:08;;;;;;;1.10;1.00;;;38.80;37.50;;;;;;5056106;28;20436;-74
2021/06/14 12:42:35;;;;;;;1.27;0.83;;;38.80;37.50;;;;;;5054556;28;20166;-75
2021/06/14 12:45:14;;;;;;;1.30;1.20;;;38.70;37.00;;;;;;5055406;28;20426;-74
2021/06/14 12:47:45;;;;;;;1.20;1.10;;;38.50;37.70;;;;;;5055789;28;20421;-75
2021/06/14 12:50:19;;;;;;;1.33;1.23;;;38.40;36.00;;;;;;5089493;28;20945;-74
2021/06/14 12:52:44;;;;;;;4.13;1.10;;;38.30;37.00;;;;;;5052380;28;20458;-74
2021/06/14 12:55:17;;;;;;;1.60;1.30;;;38.30;37.10;;;;;;5051750;28;20421;-74
2021/06/14 12:57:43;;;;;;;1.27;1.17;;;38.10;36.10;;;;;;5052472;28;20197;-74